الصفحة الرئيسية
METAR-TAF:

METAR-TAF

مطار :

مطار هاربين الدولي

هاربين, جمهورية الصين الشعبية

دائرة عرض: 45-45N, خط طول: 126-46E, ارتفاع: 143 متر

مراقبة الطقس الحالي

تاريخ ووقت الإصدار 1ساعة و 6 دقيقة قبل الساعة 13:00UTC
ريح 8 عقدة من الغرب
درجة الحرارة 9°درجة مئوية
الرطوبة 31%
ضغط 1021 hPa
الرؤية 10 كم أو أكثر
الغيوم لا تقل 1500 م ولا وجود لمزنة ركامية السحاب الأسود

METAR: ZYHB 101300Z 27004MPS CAVOK 09/M07 Q1021 NOSIG

زمن: 22:06 (14:06 UTC)

توقعات

تاريخ ووقت الإصدار 5ساعات و 6 دقيقة قبل الساعة 09:00UTC
التوقعات صالحة من10 الساعة 12 UTC إلى 11 الساعة 12 UTC
ريح 8 عقدة من الشمال الغربي
الرؤية: 6000 متر
غيوم قليلة على ارتفاع 3000 قدم
أصبح
من 10 الساعة 20 UTC إلى 10 الساعة 21 UTC
ريح 14 عقدة من الشمال

TAF: ZYHB 100900Z 1012/1112 31004MPS 6000 FEW030 TX16/1106Z TN02/1021Z BECMG 1020/1021 01007MPS

أرصاد الطقس والتوقعات من أكثر من 4000 مطار (تقارير الطقس للمطار METAR والتنبؤ بالطقس بالمطارTAF).

المحطات المتاحة هي النقط الصفراء والحمراء على الخريطة.

حرك المؤشر فوق النقطة لمعرفة اسم المحطة.

ثم انقر لمعرفة أرصاد وتوقعات الطقس.

لتغيير الخارطة: اضغط على الأزرار الخضراء مع رمز الصليب الأسود للتكبير. على الزر الأخضر مع شرطة للتصغير، أو على الأسهم الخضراء للخرائط المجاورة.


METAR-TAF: